sensor_id;sensor_type;location;lat;lon;timestamp;pressure;altitude;pressure_sealevel;temperature;humidity
33191;BME280;19554;42.652;23.364;2024-03-02T00:02:06;94054.09;;;7.80;83.49
33191;BME280;19554;42.652;23.364;2024-03-02T00:04:32;94043.59;;;7.70;83.73
33191;BME280;19554;42.652;23.364;2024-03-02T00:06:58;94072.94;;;8.03;83.12
33191;BME280;19554;42.652;23.364;2024-03-02T00:09:23;94073.91;;;8.12;83.26
33191;BME280;19554;42.652;23.364;2024-03-02T00:11:49;94036.63;;;7.74;83.16
33191;BME280;19554;42.652;23.364;2024-03-02T00:14:15;94085.47;;;8.02;83.55
33191;BME280;19554;42.652;23.364;2024-03-02T00:16:41;94071.22;;;7.93;84.31
33191;BME280;19554;42.652;23.364;2024-03-02T00:19:07;93960.97;;;7.24;83.78
33191;BME280;19554;42.652;23.364;2024-03-02T00:21:34;94015.09;;;7.52;83.77
33191;BME280;19554;42.652;23.364;2024-03-02T00:24:01;94091.91;;;7.96;83.89
33191;BME280;19554;42.652;23.364;2024-03-02T00:26:32;94063.09;;;7.84;83.54
33191;BME280;19554;42.652;23.364;2024-03-02T00:28:59;94074.44;;;7.90;83.59
33191;BME280;19554;42.652;23.364;2024-03-02T00:31:25;94080.47;;;7.72;85.14
33191;BME280;19554;42.652;23.364;2024-03-02T00:33:51;94067.03;;;7.63;86.09
33191;BME280;19554;42.652;23.364;2024-03-02T00:36:22;94051.22;;;7.53;85.95
33191;BME280;19554;42.652;23.364;2024-03-02T00:38:51;94068.94;;;7.57;86.33
33191;BME280;19554;42.652;23.364;2024-03-02T00:41:27;94064.19;;;7.54;86.27
33191;BME280;19554;42.652;23.364;2024-03-02T00:44:00;94067.09;;;7.58;86.26
33191;BME280;19554;42.652;23.364;2024-03-02T00:46:33;94057.13;;;7.45;86.27
33191;BME280;19554;42.652;23.364;2024-03-02T00:49:00;94060.72;;;7.59;86.01
33191;BME280;19554;42.652;23.364;2024-03-02T00:51:29;94024.44;;;7.49;85.50
33191;BME280;19554;42.652;23.364;2024-03-02T00:53:57;94005.66;;;7.41;85.16
33191;BME280;19554;42.652;23.364;2024-03-02T00:56:24;93930.22;;;6.99;85.30
33191;BME280;19554;42.652;23.364;2024-03-02T00:58:50;94044.38;;;7.71;85.19
33191;BME280;19554;42.652;23.364;2024-03-02T01:01:16;94017.06;;;7.65;84.20
33191;BME280;19554;42.652;23.364;2024-03-02T01:03:42;94024.31;;;7.83;83.04
33191;BME280;19554;42.652;23.364;2024-03-02T01:06:08;93962.06;;;7.47;82.76
33191;BME280;19554;42.652;23.364;2024-03-02T01:08:37;94050.50;;;8.14;82.61
33191;BME280;19554;42.652;23.364;2024-03-02T01:11:03;93990.78;;;7.88;82.32
33191;BME280;19554;42.652;23.364;2024-03-02T01:13:29;94045.38;;;8.42;81.54
33191;BME280;19554;42.652;23.364;2024-03-02T01:15:54;94024.50;;;8.30;80.82
33191;BME280;19554;42.652;23.364;2024-03-02T01:18:20;93943.00;;;7.82;80.19
33191;BME280;19554;42.652;23.364;2024-03-02T01:20:45;94044.72;;;8.50;80.11
33191;BME280;19554;42.652;23.364;2024-03-02T01:23:11;94001.88;;;8.14;80.68
33191;BME280;19554;42.652;23.364;2024-03-02T01:25:36;94019.41;;;8.34;81.00
33191;BME280;19554;42.652;23.364;2024-03-02T01:28:03;94012.72;;;8.17;81.09
33191;BME280;19554;42.652;23.364;2024-03-02T01:30:28;93893.25;;;7.50;81.00
33191;BME280;19554;42.652;23.364;2024-03-02T01:32:54;94013.00;;;8.16;81.69
33191;BME280;19554;42.652;23.364;2024-03-02T01:35:19;93895.69;;;7.47;81.47
33191;BME280;19554;42.652;23.364;2024-03-02T01:37:44;93926.63;;;7.75;81.46
33191;BME280;19554;42.652;23.364;2024-03-02T01:40:10;94003.53;;;8.28;81.49
33191;BME280;19554;42.652;23.364;2024-03-02T01:42:37;94009.56;;;8.15;81.75
33191;BME280;19554;42.652;23.364;2024-03-02T01:45:06;93946.31;;;7.74;82.35
33191;BME280;19554;42.652;23.364;2024-03-02T01:47:32;93924.06;;;7.70;82.44
33191;BME280;19554;42.652;23.364;2024-03-02T01:49:58;93969.75;;;8.10;82.30
33191;BME280;19554;42.652;23.364;2024-03-02T01:52:24;94013.47;;;8.42;81.34
33191;BME280;19554;42.652;23.364;2024-03-02T01:54:49;94008.16;;;8.42;81.66
33191;BME280;19554;42.652;23.364;2024-03-02T01:57:15;93987.28;;;8.30;81.41
33191;BME280;19554;42.652;23.364;2024-03-02T01:59:41;93980.00;;;8.17;81.79
33191;BME280;19554;42.652;23.364;2024-03-02T02:02:07;94022.84;;;8.34;82.08
33191;BME280;19554;42.652;23.364;2024-03-02T02:04:33;94010.53;;;8.43;82.07
33191;BME280;19554;42.652;23.364;2024-03-02T02:06:59;93963.78;;;8.18;81.37
33191;BME280;19554;42.652;23.364;2024-03-02T02:09:25;94012.66;;;8.60;80.98
33191;BME280;19554;42.652;23.364;2024-03-02T02:11:52;94018.50;;;8.62;80.81
33191;BME280;19554;42.652;23.364;2024-03-02T02:14:17;94013.19;;;8.62;80.92
33191;BME280;19554;42.652;23.364;2024-03-02T02:16:43;94008.06;;;8.66;80.64
33191;BME280;19554;42.652;23.364;2024-03-02T02:19:09;93969.94;;;8.38;81.14
33191;BME280;19554;42.652;23.364;2024-03-02T02:21:35;93992.69;;;8.44;81.47
33191;BME280;19554;42.652;23.364;2024-03-02T02:24:01;93995.78;;;8.51;81.65
33191;BME280;19554;42.652;23.364;2024-03-02T02:26:28;93986.88;;;8.42;82.07
33191;BME280;19554;42.652;23.364;2024-03-02T02:28:54;94000.22;;;8.37;82.59
33191;BME280;19554;42.652;23.364;2024-03-02T02:31:19;93979.94;;;8.03;82.93
33191;BME280;19554;42.652;23.364;2024-03-02T02:33:45;93949.13;;;7.83;83.33
33191;BME280;19554;42.652;23.364;2024-03-02T02:36:10;93918.31;;;7.63;84.08
33191;BME280;19554;42.652;23.364;2024-03-02T02:38:38;93987.78;;;8.13;84.28
33191;BME280;19554;42.652;23.364;2024-03-02T02:41:05;93983.84;;;8.11;84.18
33191;BME280;19554;42.652;23.364;2024-03-02T02:43:31;94008.28;;;8.31;84.21
33191;BME280;19554;42.652;23.364;2024-03-02T02:45:56;94002.84;;;8.42;84.12
33191;BME280;19554;42.652;23.364;2024-03-02T02:48:22;94007.59;;;8.45;83.56
33191;BME280;19554;42.652;23.364;2024-03-02T02:50:47;93913.88;;;7.77;83.45
33191;BME280;19554;42.652;23.364;2024-03-02T02:53:13;93926.34;;;7.96;83.45
33191;BME280;19554;42.652;23.364;2024-03-02T02:55:41;94010.72;;;8.47;83.10
33191;BME280;19554;42.652;23.364;2024-03-02T02:58:09;93883.50;;;7.65;82.59
33191;BME280;19554;42.652;23.364;2024-03-02T03:00:34;94011.88;;;8.41;83.20
33191;BME280;19554;42.652;23.364;2024-03-02T03:03:02;94011.72;;;8.51;82.96
33191;BME280;19554;42.652;23.364;2024-03-02T03:05:27;94005.78;;;8.59;82.67
33191;BME280;19554;42.652;23.364;2024-03-02T03:07:53;93920.53;;;8.13;82.29
33191;BME280;19554;42.652;23.364;2024-03-02T03:10:19;93985.66;;;8.53;82.14
33191;BME280;19554;42.652;23.364;2024-03-02T03:12:47;94004.47;;;8.75;81.88
33191;BME280;19554;42.652;23.364;2024-03-02T03:15:13;94010.88;;;8.88;81.42
33191;BME280;19554;42.652;23.364;2024-03-02T03:17:39;93940.00;;;8.46;80.99
33191;BME280;19554;42.652;23.364;2024-03-02T03:20:06;93898.28;;;8.27;80.79
33191;BME280;19554;42.652;23.364;2024-03-02T03:22:35;93917.53;;;8.38;80.69
33191;BME280;19554;42.652;23.364;2024-03-02T03:25:01;93906.66;;;8.35;80.67
33191;BME280;19554;42.652;23.364;2024-03-02T03:27:26;94001.84;;;8.89;80.61
33191;BME280;19554;42.652;23.364;2024-03-02T03:29:52;93991.56;;;8.83;80.96
33191;BME280;19554;42.652;23.364;2024-03-02T03:32:17;94006.44;;;8.84;81.11
33191;BME280;19554;42.652;23.364;2024-03-02T03:34:43;93956.38;;;8.53;81.40
33191;BME280;19554;42.652;23.364;2024-03-02T03:37:08;93961.63;;;8.58;81.56
33191;BME280;19554;42.652;23.364;2024-03-02T03:39:35;93977.19;;;8.65;81.46
33191;BME280;19554;42.652;23.364;2024-03-02T03:42:03;93981.88;;;8.73;81.49
33191;BME280;19554;42.652;23.364;2024-03-02T03:44:29;94011.78;;;8.84;81.28
33191;BME280;19554;42.652;23.364;2024-03-02T03:46:54;93944.25;;;8.47;81.02
33191;BME280;19554;42.652;23.364;2024-03-02T03:49:20;94010.31;;;8.91;80.88
33191;BME280;19554;42.652;23.364;2024-03-02T03:51:45;93930.53;;;8.40;80.30
33191;BME280;19554;42.652;23.364;2024-03-02T03:54:11;94005.09;;;8.86;80.76
33191;BME280;19554;42.652;23.364;2024-03-02T03:56:37;93963.91;;;8.65;80.69
33191;BME280;19554;42.652;23.364;2024-03-02T03:59:02;93948.19;;;8.49;80.03
33191;BME280;19554;42.652;23.364;2024-03-02T04:01:28;94005.34;;;8.85;80.53
33191;BME280;19554;42.652;23.364;2024-03-02T04:03:53;93839.06;;;7.70;80.35
33191;BME280;19554;42.652;23.364;2024-03-02T04:06:19;93959.13;;;8.48;80.62
33191;BME280;19554;42.652;23.364;2024-03-02T04:08:44;93939.94;;;8.32;80.46
33191;BME280;19554;42.652;23.364;2024-03-02T04:11:10;94010.06;;;8.74;80.72
33191;BME280;19554;42.652;23.364;2024-03-02T04:13:35;94007.13;;;8.75;80.88
33191;BME280;19554;42.652;23.364;2024-03-02T04:16:01;94007.03;;;8.81;80.92
33191;BME280;19554;42.652;23.364;2024-03-02T04:18:26;94002.78;;;8.80;80.66
33191;BME280;19554;42.652;23.364;2024-03-02T04:20:52;93979.38;;;8.44;81.53
33191;BME280;19554;42.652;23.364;2024-03-02T04:23:17;94001.38;;;8.68;81.65
33191;BME280;19554;42.652;23.364;2024-03-02T04:25:43;93957.97;;;8.35;81.58
33191;BME280;19554;42.652;23.364;2024-03-02T04:28:08;94001.16;;;8.65;81.17
33191;BME280;19554;42.652;23.364;2024-03-02T04:30:34;93994.34;;;8.40;81.45
33191;BME280;19554;42.652;23.364;2024-03-02T04:32:59;94014.75;;;8.44;81.87
33191;BME280;19554;42.652;23.364;2024-03-02T04:35:25;94017.13;;;8.46;82.01
33191;BME280;19554;42.652;23.364;2024-03-02T04:37:51;94016.00;;;8.52;82.09
33191;BME280;19554;42.652;23.364;2024-03-02T04:40:16;93987.88;;;8.46;81.91
33191;BME280;19554;42.652;23.364;2024-03-02T04:42:42;93962.38;;;8.45;81.40
33191;BME280;19554;42.652;23.364;2024-03-02T04:45:08;93990.13;;;8.71;80.54
33191;BME280;19554;42.652;23.364;2024-03-02T04:47:34;93990.19;;;8.85;80.13
33191;BME280;19554;42.652;23.364;2024-03-02T04:49:59;94009.19;;;9.11;79.81
33191;BME280;19554;42.652;23.364;2024-03-02T04:52:25;93906.94;;;8.52;79.74
33191;BME280;19554;42.652;23.364;2024-03-02T04:54:50;93995.97;;;9.06;79.30
33191;BME280;19554;42.652;23.364;2024-03-02T04:57:34;93995.84;;;8.97;79.88
33191;BME280;19554;42.652;23.364;2024-03-02T04:59:59;94006.53;;;9.11;79.75
33191;BME280;19554;42.652;23.364;2024-03-02T05:02:25;94030.47;;;9.11;80.29
33191;BME280;19554;42.652;23.364;2024-03-02T05:04:51;93927.63;;;8.55;80.55
33191;BME280;19554;42.652;23.364;2024-03-02T05:07:16;94016.06;;;9.12;81.80
33191;BME280;19554;42.652;23.364;2024-03-02T05:09:42;94017.31;;;9.20;81.17
33191;BME280;19554;42.652;23.364;2024-03-02T05:12:07;94023.47;;;9.15;81.15
33191;BME280;19554;42.652;23.364;2024-03-02T05:14:36;94020.53;;;9.17;81.98
33191;BME280;19554;42.652;23.364;2024-03-02T05:17:02;93973.94;;;8.87;81.95
33191;BME280;19554;42.652;23.364;2024-03-02T05:19:28;93943.28;;;8.75;80.76
33191;BME280;19554;42.652;23.364;2024-03-02T05:21:53;93861.63;;;8.24;80.99
33191;BME280;19554;42.652;23.364;2024-03-02T05:24:18;94018.78;;;9.26;81.19
33191;BME280;19554;42.652;23.364;2024-03-02T05:26:44;94035.06;;;9.38;80.85
33191;BME280;19554;42.652;23.364;2024-03-02T05:29:09;93970.53;;;9.00;80.45
33191;BME280;19554;42.652;23.364;2024-03-02T05:31:35;94018.50;;;9.28;80.48
33191;BME280;19554;42.652;23.364;2024-03-02T05:34:00;94019.59;;;9.27;81.09
33191;BME280;19554;42.652;23.364;2024-03-02T05:36:26;94047.28;;;9.25;81.22
33191;BME280;19554;42.652;23.364;2024-03-02T05:38:51;93959.41;;;8.65;81.36
33191;BME280;19554;42.652;23.364;2024-03-02T05:41:17;94032.44;;;9.06;81.50
33191;BME280;19554;42.652;23.364;2024-03-02T05:43:43;94004.38;;;8.81;81.85
33191;BME280;19554;42.652;23.364;2024-03-02T05:46:08;93990.84;;;8.77;82.21
33191;BME280;19554;42.652;23.364;2024-03-02T05:48:33;93977.34;;;8.73;82.24
33191;BME280;19554;42.652;23.364;2024-03-02T05:50:59;94063.84;;;9.22;82.38
33191;BME280;19554;42.652;23.364;2024-03-02T05:53:25;94023.91;;;8.90;82.68
33191;BME280;19554;42.652;23.364;2024-03-02T05:55:50;94066.19;;;9.10;83.63
33191;BME280;19554;42.652;23.364;2024-03-02T05:58:20;94043.56;;;8.75;84.93
33191;BME280;19554;42.652;23.364;2024-03-02T06:01:06;94061.34;;;8.80;86.65
33191;BME280;19554;42.652;23.364;2024-03-02T06:03:32;94036.19;;;8.53;87.25
33191;BME280;19554;42.652;23.364;2024-03-02T06:05:57;94059.16;;;8.82;87.48
33191;BME280;19554;42.652;23.364;2024-03-02T06:08:23;94072.47;;;8.82;86.96
33191;BME280;19554;42.652;23.364;2024-03-02T06:10:48;93958.97;;;8.20;88.16
33191;BME280;19554;42.652;23.364;2024-03-02T06:13:14;94073.44;;;9.05;88.13
33191;BME280;19554;42.652;23.364;2024-03-02T06:15:39;94045.41;;;8.93;86.52
33191;BME280;19554;42.652;23.364;2024-03-02T06:18:05;94024.50;;;8.87;85.58
33191;BME280;19554;42.652;23.364;2024-03-02T06:20:33;94065.44;;;9.23;85.53
33191;BME280;19554;42.652;23.364;2024-03-02T06:22:58;94048.03;;;9.12;84.95
33191;BME280;19554;42.652;23.364;2024-03-02T06:25:24;94070.59;;;9.34;84.71
33191;BME280;19554;42.652;23.364;2024-03-02T06:27:49;94053.66;;;9.11;85.44
33191;BME280;19554;42.652;23.364;2024-03-02T06:30:14;94025.53;;;8.53;87.48
33191;BME280;19554;42.652;23.364;2024-03-02T06:32:40;94046.94;;;8.99;87.69
33191;BME280;19554;42.652;23.364;2024-03-02T06:35:06;94057.56;;;8.99;85.90
33191;BME280;19554;42.652;23.364;2024-03-02T06:37:35;94082.97;;;9.24;85.17
33191;BME280;19554;42.652;23.364;2024-03-02T06:40:01;94075.50;;;9.27;84.93
33191;BME280;19554;42.652;23.364;2024-03-02T06:42:27;94085.53;;;9.30;84.96
33191;BME280;19554;42.652;23.364;2024-03-02T06:44:58;94083.09;;;9.33;84.75
33191;BME280;19554;42.652;23.364;2024-03-02T06:47:23;94085.06;;;9.28;84.01
33191;BME280;19554;42.652;23.364;2024-03-02T06:49:48;94082.00;;;9.20;84.12
33191;BME280;19554;42.652;23.364;2024-03-02T06:52:14;94088.13;;;9.02;85.52
33191;BME280;19554;42.652;23.364;2024-03-02T06:54:39;94044.78;;;8.83;85.39
33191;BME280;19554;42.652;23.364;2024-03-02T06:57:05;94060.03;;;8.96;85.97
33191;BME280;19554;42.652;23.364;2024-03-02T06:59:30;94015.59;;;8.77;85.94
33191;BME280;19554;42.652;23.364;2024-03-02T07:01:56;94046.03;;;9.04;85.89
33191;BME280;19554;42.652;23.364;2024-03-02T07:04:22;94016.78;;;8.85;84.82
33191;BME280;19554;42.652;23.364;2024-03-02T07:06:47;94076.50;;;9.31;84.20
33191;BME280;19554;42.652;23.364;2024-03-02T07:09:13;94090.53;;;9.50;83.87
33191;BME280;19554;42.652;23.364;2024-03-02T07:11:38;94094.69;;;9.56;83.54
33191;BME280;19554;42.652;23.364;2024-03-02T07:14:03;94085.63;;;9.57;83.19
33191;BME280;19554;42.652;23.364;2024-03-02T07:16:29;94075.91;;;9.34;82.06
33191;BME280;19554;42.652;23.364;2024-03-02T07:18:58;94099.03;;;9.52;82.47
33191;BME280;19554;42.652;23.364;2024-03-02T07:21:24;94091.94;;;9.47;82.74
33191;BME280;19554;42.652;23.364;2024-03-02T07:23:50;94036.56;;;8.98;83.28
33191;BME280;19554;42.652;23.364;2024-03-02T07:26:16;94102.38;;;9.44;83.39
33191;BME280;19554;42.652;23.364;2024-03-02T07:28:43;94101.78;;;9.47;83.03
33191;BME280;19554;42.652;23.364;2024-03-02T07:31:09;94058.81;;;9.21;82.65
33191;BME280;19554;42.652;23.364;2024-03-02T07:33:35;94045.06;;;9.00;82.34
33191;BME280;19554;42.652;23.364;2024-03-02T07:36:01;94044.53;;;8.98;82.33
33191;BME280;19554;42.652;23.364;2024-03-02T07:38:28;94104.13;;;9.35;83.12
33191;BME280;19554;42.652;23.364;2024-03-02T07:40:54;94057.84;;;8.98;84.17
33191;BME280;19554;42.652;23.364;2024-03-02T07:43:20;94077.31;;;8.80;84.53
33191;BME280;19554;42.652;23.364;2024-03-02T07:45:47;94045.47;;;8.56;85.09
33191;BME280;19554;42.652;23.364;2024-03-02T07:48:12;94056.28;;;8.40;86.45
33191;BME280;19554;42.652;23.364;2024-03-02T07:50:38;94120.06;;;8.64;87.86
33191;BME280;19554;42.652;23.364;2024-03-02T07:53:05;94089.03;;;8.36;88.88
33191;BME280;19554;42.652;23.364;2024-03-02T07:55:31;94077.66;;;8.11;88.72
33191;BME280;19554;42.652;23.364;2024-03-02T07:57:57;94091.88;;;8.20;89.16
33191;BME280;19554;42.652;23.364;2024-03-02T08:00:23;94032.94;;;7.94;89.83
33191;BME280;19554;42.652;23.364;2024-03-02T08:02:50;94089.03;;;8.36;89.64
33191;BME280;19554;42.652;23.364;2024-03-02T08:05:18;94124.34;;;8.65;89.81
33191;BME280;19554;42.652;23.364;2024-03-02T08:07:45;94050.63;;;8.04;88.91
33191;BME280;19554;42.652;23.364;2024-03-02T08:10:11;94090.41;;;8.33;89.00
33191;BME280;19554;42.652;23.364;2024-03-02T08:12:36;93989.16;;;7.68;88.58
33191;BME280;19554;42.652;23.364;2024-03-02T08:15:02;94123.91;;;8.58;88.72
33191;BME280;19554;42.652;23.364;2024-03-02T08:17:28;94084.75;;;8.40;88.98
33191;BME280;19554;42.652;23.364;2024-03-02T08:19:53;94083.19;;;8.39;88.43
33191;BME280;19554;42.652;23.364;2024-03-02T08:22:19;94136.84;;;8.84;88.26
33191;BME280;19554;42.652;23.364;2024-03-02T08:24:45;94024.94;;;8.18;87.33
33191;BME280;19554;42.652;23.364;2024-03-02T08:27:11;94117.41;;;8.64;87.30
33191;BME280;19554;42.652;23.364;2024-03-02T08:29:37;94129.84;;;8.88;87.52
33191;BME280;19554;42.652;23.364;2024-03-02T08:32:03;94042.44;;;8.43;87.58
33191;BME280;19554;42.652;23.364;2024-03-02T08:34:28;94092.06;;;8.72;86.54
33191;BME280;19554;42.652;23.364;2024-03-02T08:36:54;94124.75;;;9.10;86.72
33191;BME280;19554;42.652;23.364;2024-03-02T08:39:19;94039.34;;;8.55;86.83
33191;BME280;19554;42.652;23.364;2024-03-02T08:41:46;94026.69;;;8.47;86.46
33191;BME280;19554;42.652;23.364;2024-03-02T08:44:13;94129.94;;;9.01;87.40
33191;BME280;19554;42.652;23.364;2024-03-02T08:46:39;94096.84;;;8.70;88.33
33191;BME280;19554;42.652;23.364;2024-03-02T08:49:05;94103.69;;;8.76;89.36
33191;BME280;19554;42.652;23.364;2024-03-02T08:51:30;94129.66;;;9.03;89.22
33191;BME280;19554;42.652;23.364;2024-03-02T08:53:57;94037.75;;;8.54;88.58
33191;BME280;19554;42.652;23.364;2024-03-02T08:56:23;94128.91;;;9.16;87.17
33191;BME280;19554;42.652;23.364;2024-03-02T08:58:50;94079.66;;;9.00;86.31
33191;BME280;19554;42.652;23.364;2024-03-02T09:01:16;94071.09;;;9.03;85.35
33191;BME280;19554;42.652;23.364;2024-03-02T09:03:42;94120.38;;;9.33;85.30
33191;BME280;19554;42.652;23.364;2024-03-02T09:06:13;94031.56;;;8.77;83.92
33191;BME280;19554;42.652;23.364;2024-03-02T09:08:39;94118.38;;;9.44;83.96
33191;BME280;19554;42.652;23.364;2024-03-02T09:11:08;94110.44;;;9.39;82.82
33191;BME280;19554;42.652;23.364;2024-03-02T09:13:33;94119.53;;;9.38;82.00
33191;BME280;19554;42.652;23.364;2024-03-02T09:15:59;94096.03;;;9.40;82.13
33191;BME280;19554;42.652;23.364;2024-03-02T09:18:25;94128.81;;;9.40;82.77
33191;BME280;19554;42.652;23.364;2024-03-02T09:20:50;94048.09;;;8.74;81.57
33191;BME280;19554;42.652;23.364;2024-03-02T09:23:16;94129.50;;;9.46;81.85
33191;BME280;19554;42.652;23.364;2024-03-02T09:25:41;94130.97;;;9.38;82.43
33191;BME280;19554;42.652;23.364;2024-03-02T09:28:07;94143.44;;;9.57;82.55
33191;BME280;19554;42.652;23.364;2024-03-02T09:30:33;94137.56;;;9.73;82.09
33191;BME280;19554;42.652;23.364;2024-03-02T09:32:58;94138.34;;;9.74;79.19
33191;BME280;19554;42.652;23.364;2024-03-02T09:35:24;94129.25;;;9.61;78.60
33191;BME280;19554;42.652;23.364;2024-03-02T09:37:50;94136.50;;;9.75;79.16
33191;BME280;19554;42.652;23.364;2024-03-02T09:40:15;94111.06;;;9.49;78.86
33191;BME280;19554;42.652;23.364;2024-03-02T09:42:41;94037.38;;;9.12;80.00
33191;BME280;19554;42.652;23.364;2024-03-02T09:45:08;94131.66;;;9.77;80.03
33191;BME280;19554;42.652;23.364;2024-03-02T09:47:34;94135.88;;;9.78;80.07
33191;BME280;19554;42.652;23.364;2024-03-02T09:50:00;94143.19;;;9.72;79.77
33191;BME280;19554;42.652;23.364;2024-03-02T09:52:25;94134.78;;;9.65;81.04
33191;BME280;19554;42.652;23.364;2024-03-02T09:54:51;94115.31;;;9.51;82.91
33191;BME280;19554;42.652;23.364;2024-03-02T09:57:17;94138.31;;;9.60;81.08
33191;BME280;19554;42.652;23.364;2024-03-02T09:59:42;94142.44;;;9.53;81.64
33191;BME280;19554;42.652;23.364;2024-03-02T10:02:08;94134.59;;;9.61;81.56
33191;BME280;19554;42.652;23.364;2024-03-02T10:04:33;94143.75;;;9.55;83.03
33191;BME280;19554;42.652;23.364;2024-03-02T10:07:16;94136.31;;;9.52;83.95
33191;BME280;19554;42.652;23.364;2024-03-02T10:09:44;94055.91;;;8.85;84.86
33191;BME280;19554;42.652;23.364;2024-03-02T10:12:10;94134.63;;;9.42;84.76
33191;BME280;19554;42.652;23.364;2024-03-02T10:14:40;94135.34;;;9.29;84.53
33191;BME280;19554;42.652;23.364;2024-03-02T10:17:07;94101.44;;;9.02;85.42
33191;BME280;19554;42.652;23.364;2024-03-02T10:19:33;94137.81;;;9.25;88.22
33191;BME280;19554;42.652;23.364;2024-03-02T10:22:01;94123.75;;;9.06;89.83
33191;BME280;19554;42.652;23.364;2024-03-02T10:24:34;94144.28;;;9.19;91.05
33191;BME280;19554;42.652;23.364;2024-03-02T10:27:00;94144.28;;;9.19;90.80
33191;BME280;19554;42.652;23.364;2024-03-02T10:29:29;94115.25;;;9.04;90.82
33191;BME280;19554;42.652;23.364;2024-03-02T10:31:55;94054.81;;;8.72;90.67
33191;BME280;19554;42.652;23.364;2024-03-02T10:34:21;94069.22;;;8.85;91.40
33191;BME280;19554;42.652;23.364;2024-03-02T10:36:47;94132.69;;;9.29;90.13
33191;BME280;19554;42.652;23.364;2024-03-02T10:39:14;94132.59;;;9.20;90.18
33191;BME280;19554;42.652;23.364;2024-03-02T10:41:40;94135.81;;;9.17;90.72
33191;BME280;19554;42.652;23.364;2024-03-02T10:44:07;94135.44;;;9.24;90.99
33191;BME280;19554;42.652;23.364;2024-03-02T10:46:35;94039.34;;;8.55;91.38
33191;BME280;19554;42.652;23.364;2024-03-02T10:49:02;94135.09;;;9.31;91.52
33191;BME280;19554;42.652;23.364;2024-03-02T10:51:31;94072.03;;;8.93;91.51
33191;BME280;19554;42.652;23.364;2024-03-02T10:53:58;94072.88;;;8.89;90.78
33191;BME280;19554;42.652;23.364;2024-03-02T10:56:41;94128.25;;;9.24;91.92
33191;BME280;19554;42.652;23.364;2024-03-02T11:01:48;94071.66;;;9.00;92.17
33191;BME280;19554;42.652;23.364;2024-03-02T11:04:18;94054.69;;;8.96;89.74
33191;BME280;19554;42.652;23.364;2024-03-02T11:06:51;94121.41;;;9.37;88.76
33191;BME280;19554;42.652;23.364;2024-03-02T11:09:19;94123.75;;;9.39;88.83
33191;BME280;19554;42.652;23.364;2024-03-02T11:11:50;94087.91;;;9.17;89.78
33191;BME280;19554;42.652;23.364;2024-03-02T11:14:22;94110.75;;;9.18;89.86
33191;BME280;19554;42.652;23.364;2024-03-02T11:16:49;94079.44;;;8.77;91.36
33191;BME280;19554;42.652;23.364;2024-03-02T11:19:16;94087.09;;;8.65;92.43
33191;BME280;19554;42.652;23.364;2024-03-02T11:21:42;93978.59;;;7.87;93.18
33191;BME280;19554;42.652;23.364;2024-03-02T11:26:52;94106.56;;;8.61;96.00
33191;BME280;19554;42.652;23.364;2024-03-02T11:32:20;94120.44;;;8.76;96.06
33191;BME280;19554;42.652;23.364;2024-03-02T11:34:48;94118.88;;;8.75;95.20
33191;BME280;19554;42.652;23.364;2024-03-02T11:37:15;94034.22;;;8.21;95.69
33191;BME280;19554;42.652;23.364;2024-03-02T11:39:42;94099.56;;;8.65;95.34
33191;BME280;19554;42.652;23.364;2024-03-02T11:42:08;94116.84;;;8.67;94.83
33191;BME280;19554;42.652;23.364;2024-03-02T11:44:37;94098.66;;;8.56;94.64
33191;BME280;19554;42.652;23.364;2024-03-02T11:47:07;94102.09;;;8.56;94.59
33191;BME280;19554;42.652;23.364;2024-03-02T11:49:38;94123.91;;;8.77;94.93
33191;BME280;19554;42.652;23.364;2024-03-02T11:52:06;94125.75;;;8.76;94.16
33191;BME280;19554;42.652;23.364;2024-03-02T11:54:36;94118.06;;;8.75;94.80
33191;BME280;19554;42.652;23.364;2024-03-02T11:57:05;94071.63;;;8.48;94.69
33191;BME280;19554;42.652;23.364;2024-03-02T11:59:31;94055.13;;;8.27;94.24
33191;BME280;19554;42.652;23.364;2024-03-02T12:01:57;94116.47;;;8.74;93.87
33191;BME280;19554;42.652;23.364;2024-03-02T12:04:23;94118.06;;;8.75;93.33
33191;BME280;19554;42.652;23.364;2024-03-02T12:09:22;94118.50;;;8.82;93.71
33191;BME280;19554;42.652;23.364;2024-03-02T12:11:47;94065.94;;;8.55;92.83
33191;BME280;19554;42.652;23.364;2024-03-02T12:14:13;94053.28;;;8.47;93.40
33191;BME280;19554;42.652;23.364;2024-03-02T12:16:39;94115.03;;;9.00;92.48
33191;BME280;19554;42.652;23.364;2024-03-02T12:19:05;94030.28;;;8.56;92.01
33191;BME280;19554;42.652;23.364;2024-03-02T12:21:31;94047.31;;;8.74;90.77
33191;BME280;19554;42.652;23.364;2024-03-02T12:23:57;94110.19;;;9.21;89.80
33191;BME280;19554;42.652;23.364;2024-03-02T12:26:22;94109.63;;;9.24;88.93
33191;BME280;19554;42.652;23.364;2024-03-02T12:28:49;94113.00;;;9.30;89.17
33191;BME280;19554;42.652;23.364;2024-03-02T12:31:14;94114.94;;;9.24;89.38
33191;BME280;19554;42.652;23.364;2024-03-02T12:33:40;94061.22;;;9.04;90.28
33191;BME280;19554;42.652;23.364;2024-03-02T12:36:10;93972.75;;;8.60;88.81
33191;BME280;19554;42.652;23.364;2024-03-02T12:38:37;94092.31;;;9.41;88.25
33191;BME280;19554;42.652;23.364;2024-03-02T12:41:03;93988.97;;;8.77;87.40
33191;BME280;19554;42.652;23.364;2024-03-02T12:43:30;94064.44;;;9.33;87.07
33191;BME280;19554;42.652;23.364;2024-03-02T12:45:57;94117.19;;;9.64;87.16
33191;BME280;19554;42.652;23.364;2024-03-02T12:48:23;94109.91;;;9.69;86.60
33191;BME280;19554;42.652;23.364;2024-03-02T12:50:49;94054.28;;;9.21;87.33
33191;BME280;19554;42.652;23.364;2024-03-02T12:53:15;94055.50;;;9.43;87.28
33191;BME280;19554;42.652;23.364;2024-03-02T12:55:42;94053.41;;;9.40;87.55
33191;BME280;19554;42.652;23.364;2024-03-02T12:58:09;94003.78;;;9.16;87.17
33191;BME280;19554;42.652;23.364;2024-03-02T13:00:34;94114.63;;;10.05;85.33
33191;BME280;19554;42.652;23.364;2024-03-02T13:03:01;94115.66;;;9.90;84.45
33191;BME280;19554;42.652;23.364;2024-03-02T13:05:31;94091.78;;;9.99;84.26
33191;BME280;19554;42.652;23.364;2024-03-02T13:07:58;94070.16;;;9.87;82.82